< < Back
Terminal Aerodrome Forecast


Current Version              Previous Versions:   1  2  3  4  5  6  7  8  9  

Terminal Aerodrome Forecast

320
FTUS44 KOHX 291120
TAFCSV
TAF
KCSV 291120Z 2912/3012 36004KT P6SM BKN250
     FM300000 VRB05KT P6SM BKN120
     FM301100 00000KT 5SM -RA OVC025=

Latest METAR

908
SAUS70 KWBC 291600 RRC
MTRCSV
METAR KCSV 291553Z AUTO VRB05KT 10SM CLR 24/06 A3006 RMK AO2 SLP161
T02440061


USA.gov is the U.S. government's official web portal to all federal, state and local government web resources and services.